Time;durP1;ratioP1;P1;durP2;ratioP2;P2;SDS_P1;SDS_P2;PMS_P1;PMS_P2;Temp;Humidity;BMP_temperature;BMP_pressure;BME280_temperature;BME280_humidity;BME280_pressure;Samples;Min_cycle;Max_cycle;Signal;HPM_P1;HPM_P2
2020/12/30 00:01:00;;;;;;;17.85;9.43;;;5.30;99.90;;;;;;5072142;28;20257;-76
2020/12/30 00:03:27;;;;;;;22.60;9.10;;;5.20;99.90;;;;;;5074284;28;20204;-75
2020/12/30 00:05:53;;;;;;;16.45;7.57;;;5.30;99.90;;;;;;5071446;28;20193;-76
2020/12/30 00:08:20;;;;;;;12.95;6.55;;;5.20;99.90;;;;;;5071765;27;20230;-76
2020/12/30 00:10:47;;;;;;;18.92;8.02;;;5.20;99.90;;;;;;5074128;28;20239;-76
2020/12/30 00:13:13;;;;;;;13.00;8.02;;;5.20;99.90;;;;;;5072956;28;20202;-75
2020/12/30 00:15:40;;;;;;;18.30;7.63;;;5.20;99.90;;;;;;5070159;28;20207;-75
2020/12/30 00:18:06;;;;;;;13.00;6.70;;;5.20;99.90;;;;;;5076107;28;20254;-76
2020/12/30 00:20:32;;;;;;;13.93;7.20;;;5.20;99.90;;;;;;5071947;28;20215;-76
2020/12/30 00:22:59;;;;;;;20.15;7.85;;;5.20;99.90;;;;;;5076376;28;20258;-76
2020/12/30 00:25:27;;;;;;;20.83;7.65;;;5.20;99.90;;;;;;5069042;28;20696;-76
2020/12/30 00:27:54;;;;;;;19.70;7.20;;;5.20;99.90;;;;;;5068518;27;20211;-76
2020/12/30 00:30:20;;;;;;;19.08;7.40;;;5.20;99.90;;;;;;5070291;28;20254;-75
2020/12/30 00:32:47;;;;;;;25.63;7.75;;;5.20;99.90;;;;;;5067180;28;20210;-76
2020/12/30 00:35:15;;;;;;;21.58;8.07;;;5.30;99.90;;;;;;5067771;27;20202;-76
2020/12/30 00:37:42;;;;;;;19.67;8.07;;;5.30;99.90;;;;;;5067368;28;20244;-75
2020/12/30 00:40:08;;;;;;;21.95;10.65;;;5.30;99.90;;;;;;5066452;28;20227;-75
2020/12/30 00:42:37;;;;;;;27.02;11.68;;;5.40;99.90;;;;;;5069366;28;20700;-75
2020/12/30 00:45:04;;;;;;;23.75;12.55;;;5.40;99.90;;;;;;5071903;28;20218;-74
2020/12/30 00:47:30;;;;;;;25.00;11.15;;;5.50;99.90;;;;;;5070782;28;20251;-75
2020/12/30 00:49:57;;;;;;;22.15;10.48;;;5.50;99.90;;;;;;5067531;28;20584;-75
2020/12/30 00:52:26;;;;;;;21.85;10.02;;;5.50;99.90;;;;;;5074430;27;20199;-74
2020/12/30 00:54:54;;;;;;;19.20;9.73;;;5.50;99.90;;;;;;5068240;28;20207;-76
2020/12/30 00:57:32;;;;;;;18.85;8.98;;;5.50;99.90;;;;;;5067937;28;20310;-75
2020/12/30 01:00:00;;;;;;;14.98;8.23;;;5.50;99.90;;;;;;5065888;28;20194;-76
2020/12/30 01:02:46;;;;;;;13.98;7.03;;;5.50;99.90;;;;;;5070643;28;20203;-76
2020/12/30 01:05:13;;;;;;;12.45;5.47;;;5.50;99.90;;;;;;5066904;28;20202;-76
2020/12/30 01:07:39;;;;;;;14.40;4.57;;;5.50;99.90;;;;;;5067763;27;20230;-75
2020/12/30 01:10:06;;;;;;;16.70;3.85;;;5.50;99.90;;;;;;5065312;28;20218;-76
2020/12/30 01:12:32;;;;;;;10.90;3.70;;;5.50;99.90;;;;;;5066571;28;20211;-76
2020/12/30 01:14:59;;;;;;;11.07;4.07;;;5.50;99.90;;;;;;5072024;28;20198;-76
2020/12/30 01:17:26;;;;;;;6.93;2.92;;;5.50;99.90;;;;;;5078942;28;20206;-76
2020/12/30 01:19:53;;;;;;;15.57;2.60;;;5.40;99.90;;;;;;5075694;28;20225;-78
2020/12/30 01:22:19;;;;;;;7.72;1.23;;;5.40;99.90;;;;;;5071064;28;20198;-76
2020/12/30 01:24:45;;;;;;;10.20;1.27;;;5.30;99.90;;;;;;5072130;27;20198;-76
2020/12/30 01:27:12;;;;;;;5.05;1.10;;;5.10;99.90;;;;;;5070149;28;21049;-77
2020/12/30 01:29:38;;;;;;;3.55;1.05;;;4.90;99.90;;;;;;5077209;28;20747;-77
2020/12/30 01:32:06;;;;;;;6.15;0.70;;;4.80;99.90;;;;;;5079673;28;20220;-77
2020/12/30 01:34:33;;;;;;;8.80;1.10;;;4.70;99.90;;;;;;5071633;28;20203;-76
2020/12/30 01:36:59;;;;;;;4.10;0.73;;;4.70;99.90;;;;;;5071319;28;20738;-78
2020/12/30 01:39:26;;;;;;;6.05;0.85;;;4.70;99.90;;;;;;5076457;28;20225;-77
2020/12/30 01:41:52;;;;;;;10.15;1.27;;;4.60;99.90;;;;;;5073254;28;20202;-77
2020/12/30 01:44:18;;;;;;;2.53;1.10;;;4.60;99.90;;;;;;5072404;28;20206;-76
2020/12/30 01:46:46;;;;;;;2.90;1.15;;;4.70;99.90;;;;;;5075999;28;20674;-77
2020/12/30 01:49:17;;;;;;;6.30;1.15;;;4.70;99.90;;;;;;5068606;28;20239;-77
2020/12/30 01:51:43;;;;;;;9.93;1.30;;;4.70;99.90;;;;;;5066825;28;20197;-77
2020/12/30 01:54:11;;;;;;;2.47;1.10;;;4.70;99.90;;;;;;5073916;28;20202;-76
2020/12/30 01:56:37;;;;;;;3.97;1.15;;;4.70;99.90;;;;;;5074546;28;20215;-76
2020/12/30 01:59:06;;;;;;;17.00;1.30;;;4.70;99.90;;;;;;5070699;28;20199;-77
2020/12/30 02:01:35;;;;;;;10.88;1.40;;;4.70;99.90;;;;;;5066898;27;20579;-75
2020/12/30 02:04:04;;;;;;;12.68;1.45;;;4.70;99.90;;;;;;5071277;28;20729;-75
2020/12/30 02:06:32;;;;;;;22.77;2.33;;;4.70;99.90;;;;;;5066796;28;20273;-75
2020/12/30 02:09:03;;;;;;;8.43;1.67;;;4.70;99.90;;;;;;5065489;27;20218;-74
2020/12/30 02:11:30;;;;;;;19.25;2.30;;;4.70;99.90;;;;;;5066877;28;20210;-75
2020/12/30 02:14:05;;;;;;;16.20;2.03;;;4.80;99.90;;;;;;5064832;28;20211;-75
2020/12/30 02:16:32;;;;;;;3.42;1.25;;;4.80;99.90;;;;;;5068370;27;20240;-74
2020/12/30 02:19:00;;;;;;;9.35;1.30;;;4.80;99.90;;;;;;5070936;28;20243;-74
2020/12/30 02:21:26;;;;;;;5.72;1.55;;;4.80;99.90;;;;;;5069877;28;20206;-74
2020/12/30 02:23:56;;;;;;;4.30;1.50;;;4.80;99.90;;;;;;5070713;28;20247;-74
2020/12/30 02:26:24;;;;;;;3.67;1.40;;;4.80;99.90;;;;;;5066794;27;20218;-75
2020/12/30 02:28:50;;;;;;;9.55;1.65;;;4.80;99.90;;;;;;5068938;28;20221;-75
2020/12/30 02:31:16;;;;;;;12.15;1.80;;;4.80;99.90;;;;;;5069244;28;20198;-74
2020/12/30 02:33:43;;;;;;;3.05;1.17;;;4.90;99.90;;;;;;5064783;28;20211;-75
2020/12/30 02:36:09;;;;;;;7.25;1.30;;;4.90;99.90;;;;;;5068419;27;20688;-75
2020/12/30 02:38:35;;;;;;;2.60;1.38;;;4.90;99.90;;;;;;5071568;28;20230;-74
2020/12/30 02:41:02;;;;;;;4.28;1.63;;;4.90;99.90;;;;;;5069557;28;20210;-74
2020/12/30 02:43:29;;;;;;;6.28;1.50;;;5.00;99.90;;;;;;5071328;28;20239;-75
2020/12/30 02:45:56;;;;;;;13.32;2.05;;;5.00;99.90;;;;;;5065509;28;20199;-74
2020/12/30 02:48:22;;;;;;;2.88;1.75;;;5.00;99.90;;;;;;5070234;28;20271;-74
2020/12/30 02:50:49;;;;;;;30.00;2.20;;;5.00;99.90;;;;;;5069100;28;20707;-75
2020/12/30 02:53:15;;;;;;;7.30;1.88;;;5.00;99.90;;;;;;5071633;27;20616;-74
2020/12/30 02:55:41;;;;;;;10.38;2.53;;;5.00;99.90;;;;;;5065866;27;20195;-74
2020/12/30 02:58:07;;;;;;;8.18;2.00;;;5.00;99.90;;;;;;5070231;27;20194;-74
2020/12/30 03:00:35;;;;;;;14.15;2.30;;;5.00;99.90;;;;;;5067896;28;20202;-76
2020/12/30 03:03:01;;;;;;;12.77;1.52;;;5.10;99.90;;;;;;5073719;28;20602;-77
2020/12/30 03:05:27;;;;;;;10.60;1.88;;;5.10;99.90;;;;;;5076966;28;20194;-75
2020/12/30 03:07:54;;;;;;;6.90;2.00;;;5.00;99.90;;;;;;5077425;28;20199;-76
2020/12/30 03:10:20;;;;;;;14.82;2.30;;;5.00;99.90;;;;;;5078607;28;20230;-75
2020/12/30 03:12:46;;;;;;;5.20;2.00;;;5.10;99.90;;;;;;5073363;28;20206;-76
2020/12/30 03:15:13;;;;;;;7.85;2.08;;;5.10;99.90;;;;;;5075780;27;20194;-75
2020/12/30 03:17:40;;;;;;;6.18;2.13;;;5.10;99.90;;;;;;5072217;28;20206;-76
2020/12/30 03:20:06;;;;;;;7.95;2.17;;;5.10;99.90;;;;;;5072257;27;20269;-76
2020/12/30 03:22:33;;;;;;;6.68;1.83;;;5.10;99.90;;;;;;5070665;28;20202;-76
2020/12/30 03:24:59;;;;;;;4.00;1.35;;;5.10;99.90;;;;;;5070293;27;20654;-76
2020/12/30 03:27:25;;;;;;;6.15;1.10;;;5.10;99.90;;;;;;5071180;27;20678;-76
2020/12/30 03:29:52;;;;;;;14.45;1.42;;;5.10;99.90;;;;;;5074988;28;20226;-76
2020/12/30 03:32:18;;;;;;;6.45;1.30;;;5.10;99.90;;;;;;5075052;28;20213;-77
2020/12/30 03:34:45;;;;;;;12.73;1.13;;;5.10;99.90;;;;;;5070629;27;20195;-75
2020/12/30 03:37:11;;;;;;;6.78;0.98;;;5.20;99.90;;;;;;5073672;27;20438;-75
2020/12/30 03:39:38;;;;;;;9.18;1.20;;;5.20;99.90;;;;;;5070559;28;20198;-77
2020/12/30 03:42:06;;;;;;;4.47;1.13;;;5.20;99.90;;;;;;5068014;28;20206;-75
2020/12/30 03:44:32;;;;;;;7.35;0.82;;;5.20;99.90;;;;;;5072896;28;20255;-74
2020/12/30 03:46:59;;;;;;;8.02;0.80;;;5.20;99.90;;;;;;5069199;28;20203;-75
2020/12/30 03:49:25;;;;;;;8.07;1.20;;;5.20;99.90;;;;;;5068826;28;20210;-75
2020/12/30 03:51:53;;;;;;;7.13;0.90;;;5.20;99.90;;;;;;5072320;27;20207;-75
2020/12/30 03:54:19;;;;;;;10.02;0.80;;;5.20;99.90;;;;;;5069680;28;20209;-75
2020/12/30 03:56:45;;;;;;;4.53;0.80;;;5.20;99.90;;;;;;5069050;28;20282;-76
2020/12/30 03:59:12;;;;;;;3.08;0.82;;;5.20;99.90;;;;;;5065656;28;20251;-74
2020/12/30 04:01:38;;;;;;;6.43;1.05;;;5.20;99.90;;;;;;5077906;28;20250;-74
2020/12/30 04:04:04;;;;;;;5.45;0.80;;;5.20;99.90;;;;;;5069982;28;21006;-74
2020/12/30 04:06:32;;;;;;;5.70;1.00;;;5.20;99.90;;;;;;5068991;28;20246;-75
2020/12/30 04:08:59;;;;;;;5.20;0.80;;;5.30;99.90;;;;;;5069421;28;20357;-75
2020/12/30 04:11:26;;;;;;;6.70;1.17;;;5.30;99.90;;;;;;5066009;28;20211;-75
2020/12/30 04:13:52;;;;;;;8.23;1.00;;;5.20;99.90;;;;;;5068714;27;20232;-75
2020/12/30 04:16:22;;;;;;;6.05;0.90;;;5.30;99.90;;;;;;5066458;28;20205;-76
2020/12/30 04:18:49;;;;;;;10.02;1.10;;;5.20;99.90;;;;;;5074040;28;20831;-76
2020/12/30 04:21:19;;;;;;;5.03;1.20;;;5.20;99.90;;;;;;5069162;27;21626;-75
2020/12/30 04:23:45;;;;;;;8.20;1.00;;;5.20;99.90;;;;;;5073680;28;20194;-75
2020/12/30 04:26:13;;;;;;;3.10;0.90;;;5.20;99.90;;;;;;5075540;28;20187;-75
2020/12/30 04:28:40;;;;;;;7.28;0.90;;;5.20;99.90;;;;;;5077114;28;20214;-75
2020/12/30 04:31:09;;;;;;;7.85;1.10;;;5.20;99.90;;;;;;5074540;28;20201;-75
2020/12/30 04:33:36;;;;;;;8.15;1.58;;;5.20;99.90;;;;;;5164605;27;20210;-75
2020/12/30 04:36:03;;;;;;;5.85;1.15;;;5.20;99.90;;;;;;5066206;28;20225;-75
2020/12/30 04:38:31;;;;;;;5.07;1.08;;;5.20;99.90;;;;;;5069422;28;20726;-75
2020/12/30 04:40:58;;;;;;;8.27;1.80;;;5.20;99.90;;;;;;5071703;28;20282;-76
2020/12/30 04:43:27;;;;;;;7.22;1.20;;;5.20;99.90;;;;;;5075050;28;20223;-76
2020/12/30 04:45:55;;;;;;;6.65;1.48;;;5.20;99.90;;;;;;5071006;28;20247;-75
2020/12/30 04:48:22;;;;;;;6.85;1.30;;;5.30;99.90;;;;;;5070787;28;20211;-75
2020/12/30 04:50:48;;;;;;;7.03;1.25;;;5.30;99.90;;;;;;5074814;28;20186;-75
2020/12/30 04:53:15;;;;;;;8.18;1.25;;;5.30;99.90;;;;;;5050661;28;20226;-75
2020/12/30 04:55:42;;;;;;;11.88;2.03;;;5.30;99.90;;;;;;5073503;28;20213;-75
2020/12/30 04:58:09;;;;;;;8.02;1.38;;;5.30;99.90;;;;;;5068806;28;20220;-75
2020/12/30 05:00:38;;;;;;;11.27;1.52;;;5.20;99.90;;;;;;5072239;28;20207;-75
2020/12/30 05:03:09;;;;;;;3.33;1.40;;;5.30;99.90;;;;;;5066057;28;20259;-75
2020/12/30 05:05:37;;;;;;;7.88;1.73;;;5.30;99.90;;;;;;5069559;28;20207;-77
2020/12/30 05:08:08;;;;;;;8.13;1.70;;;5.30;99.90;;;;;;5067037;27;20210;-75
2020/12/30 05:10:36;;;;;;;9.60;1.52;;;5.30;99.90;;;;;;5066901;28;20651;-75
2020/12/30 05:13:03;;;;;;;9.85;1.55;;;5.40;99.90;;;;;;5068405;28;20203;-75
2020/12/30 05:15:29;;;;;;;9.20;1.55;;;5.30;99.90;;;;;;5072441;28;20194;-76
2020/12/30 05:17:57;;;;;;;11.55;1.80;;;5.30;99.90;;;;;;5067445;28;20210;-76
2020/12/30 05:20:25;;;;;;;6.47;2.30;;;5.30;99.90;;;;;;5068782;28;20254;-77
2020/12/30 05:22:52;;;;;;;11.38;1.80;;;5.30;99.90;;;;;;5070247;27;20197;-77
2020/12/30 05:25:19;;;;;;;6.57;1.40;;;5.30;99.90;;;;;;5067621;28;20202;-76
2020/12/30 05:27:45;;;;;;;8.73;1.83;;;5.30;99.90;;;;;;5065367;28;20244;-76
2020/12/30 05:30:12;;;;;;;7.07;1.50;;;5.30;99.90;;;;;;5075085;27;20217;-77
2020/12/30 05:32:39;;;;;;;4.22;1.70;;;5.30;99.90;;;;;;5069438;28;20206;-76
2020/12/30 05:35:06;;;;;;;3.90;1.42;;;5.30;99.90;;;;;;5072397;28;20217;-75
2020/12/30 05:37:35;;;;;;;12.10;1.40;;;5.30;99.90;;;;;;5072975;28;20245;-74
2020/12/30 05:40:01;;;;;;;2.85;1.48;;;5.30;99.90;;;;;;5065966;28;20224;-75
2020/12/30 05:42:28;;;;;;;6.65;1.38;;;5.20;99.90;;;;;;5070442;28;20210;-76
2020/12/30 05:44:57;;;;;;;10.95;1.50;;;5.20;99.90;;;;;;5068833;28;20650;-74
2020/12/30 05:47:25;;;;;;;9.65;1.20;;;5.20;99.90;;;;;;5070853;28;20666;-76
2020/12/30 05:49:53;;;;;;;3.92;1.25;;;5.20;99.90;;;;;;5067038;28;20230;-75
2020/12/30 05:52:24;;;;;;;6.90;1.55;;;5.20;99.90;;;;;;5069966;28;20247;-75
2020/12/30 05:54:56;;;;;;;4.70;1.50;;;5.10;99.90;;;;;;5068197;28;20285;-75
2020/12/30 05:57:28;;;;;;;7.82;1.33;;;5.20;99.90;;;;;;5070846;28;20203;-75
2020/12/30 05:59:59;;;;;;;5.68;1.10;;;5.20;99.90;;;;;;5065069;27;20225;-75
2020/12/30 06:02:31;;;;;;;6.70;1.38;;;5.20;99.90;;;;;;5066748;28;20202;-75
2020/12/30 06:05:08;;;;;;;7.90;1.52;;;5.20;99.90;;;;;;5066868;28;20205;-76
2020/12/30 06:07:38;;;;;;;6.95;1.33;;;5.30;99.90;;;;;;5064925;27;20735;-75
2020/12/30 06:10:06;;;;;;;5.97;1.15;;;5.30;99.90;;;;;;5066404;28;20239;-75
2020/12/30 06:12:39;;;;;;;11.07;1.75;;;5.30;99.90;;;;;;5070918;28;20195;-76
2020/12/30 06:15:06;;;;;;;5.60;1.50;;;5.30;99.90;;;;;;5066002;28;20242;-75
2020/12/30 06:17:32;;;;;;;7.03;1.63;;;5.30;99.90;;;;;;5065552;28;20746;-76
2020/12/30 06:19:59;;;;;;;8.80;1.30;;;5.30;99.90;;;;;;5067755;27;20210;-76
2020/12/30 06:22:26;;;;;;;4.65;1.88;;;5.30;99.90;;;;;;5070679;28;20191;-76
2020/12/30 06:24:55;;;;;;;4.07;1.73;;;5.20;99.90;;;;;;5068326;27;20609;-76
2020/12/30 06:27:27;;;;;;;6.50;1.80;;;5.20;99.90;;;;;;5067842;28;20542;-76
2020/12/30 06:29:57;;;;;;;4.60;1.90;;;5.20;99.90;;;;;;5067840;28;20704;-75
2020/12/30 06:32:28;;;;;;;7.45;1.90;;;5.20;99.90;;;;;;5065546;28;20791;-76
2020/12/30 06:34:54;;;;;;;3.92;1.45;;;5.20;99.90;;;;;;5072150;28;20191;-76
2020/12/30 06:37:32;;;;;;;3.22;1.70;;;5.20;99.90;;;;;;5076001;27;20658;-75
2020/12/30 06:40:22;;;;;;;8.57;2.03;;;5.20;99.90;;;;;;5074173;27;20191;-76
2020/12/30 06:42:55;;;;;;;7.50;2.28;;;5.20;99.90;;;;;;5073154;28;20186;-76
2020/12/30 06:46:01;;;;;;;6.57;2.70;;;5.20;99.90;;;;;;5070342;28;20213;-76
2020/12/30 06:48:27;;;;;;;8.85;3.15;;;5.20;99.90;;;;;;5072172;28;20217;-76
2020/12/30 06:51:15;;;;;;;10.57;3.58;;;5.20;99.90;;;;;;5072987;28;20250;-76
2020/12/30 06:53:49;;;;;;;9.20;3.67;;;5.20;99.90;;;;;;5081060;28;20600;-77
2020/12/30 06:56:35;;;;;;;6.10;3.58;;;5.20;99.90;;;;;;5070239;28;20199;-77
2020/12/30 06:59:02;;;;;;;12.43;5.45;;;5.10;99.90;;;;;;5071798;28;20203;-76
2020/12/30 07:01:28;;;;;;;8.85;5.45;;;5.10;99.90;;;;;;5067097;28;20247;-76
2020/12/30 07:04:07;;;;;;;14.25;5.75;;;5.10;99.90;;;;;;5076231;27;20573;-77
2020/12/30 07:06:35;;;;;;;12.82;7.65;;;5.10;99.90;;;;;;5069024;27;20190;-75
2020/12/30 07:09:03;;;;;;;15.30;7.65;;;5.10;99.90;;;;;;5070517;28;20625;-75
2020/12/30 07:11:51;;;;;;;16.85;9.02;;;5.00;99.90;;;;;;5075071;28;20202;-77
2020/12/30 07:14:19;;;;;;;19.75;10.10;;;5.00;99.90;;;;;;5077829;28;20644;-76
2020/12/30 07:16:47;;;;;;;19.02;10.23;;;5.00;99.90;;;;;;5067894;28;20281;-76
2020/12/30 07:19:16;;;;;;;19.13;9.68;;;5.00;99.90;;;;;;5077455;28;20195;-77
2020/12/30 07:21:59;;;;;;;19.13;10.02;;;5.00;99.90;;;;;;5079261;28;20210;-76
2020/12/30 07:24:27;;;;;;;17.50;10.15;;;4.90;99.90;;;;;;5067797;28;20203;-76
2020/12/30 07:26:57;;;;;;;19.67;10.48;;;4.90;99.90;;;;;;5087770;28;20194;-76
2020/12/30 07:29:24;;;;;;;23.30;11.57;;;4.90;99.90;;;;;;5080080;28;20203;-77
2020/12/30 07:31:53;;;;;;;19.65;11.63;;;4.90;99.90;;;;;;5088267;28;20658;-78
2020/12/30 07:34:22;;;;;;;21.20;12.07;;;4.90;99.90;;;;;;5068917;28;20198;-76
2020/12/30 07:36:49;;;;;;;20.30;12.45;;;4.90;99.90;;;;;;5067261;28;20203;-76
2020/12/30 07:39:16;;;;;;;19.85;11.95;;;4.90;99.90;;;;;;5069568;28;20563;-76
2020/12/30 07:41:45;;;;;;;23.98;12.40;;;4.90;99.90;;;;;;5081486;28;20540;-76
2020/12/30 07:44:15;;;;;;;23.23;13.10;;;4.90;99.90;;;;;;5083141;28;20553;-76
2020/12/30 07:46:43;;;;;;;20.60;12.68;;;4.90;99.90;;;;;;5069810;28;20630;-76
2020/12/30 07:49:14;;;;;;;26.25;13.15;;;4.90;99.90;;;;;;5080509;28;20206;-76
2020/12/30 07:51:47;;;;;;;22.50;12.75;;;5.00;99.90;;;;;;5076018;27;20202;-76
2020/12/30 07:54:15;;;;;;;24.00;13.57;;;4.90;99.90;;;;;;5084543;28;20198;-76
2020/12/30 07:56:42;;;;;;;20.15;12.45;;;5.00;99.90;;;;;;5070042;28;20205;-76
2020/12/30 07:59:09;;;;;;;24.33;14.07;;;5.00;99.90;;;;;;5071004;28;20195;-75
2020/12/30 08:01:36;;;;;;;23.25;13.45;;;5.00;99.90;;;;;;5067376;28;20198;-76
2020/12/30 08:04:09;;;;;;;24.17;12.98;;;5.00;99.90;;;;;;5071514;28;20202;-80
2020/12/30 08:06:46;;;;;;;26.67;13.80;;;5.00;99.90;;;;;;5070303;27;20217;-75
2020/12/30 08:09:13;;;;;;;24.40;14.02;;;5.00;99.90;;;;;;5087734;28;20213;-76
2020/12/30 08:11:50;;;;;;;20.67;13.45;;;5.00;99.90;;;;;;5068179;28;20218;-75
2020/12/30 08:14:17;;;;;;;28.80;11.95;;;5.00;99.90;;;;;;5067849;28;20207;-75
2020/12/30 08:16:58;;;;;;;22.17;8.90;;;5.10;99.90;;;;;;5073853;28;20333;-75
2020/12/30 08:19:29;;;;;;;15.35;7.10;;;5.10;99.90;;;;;;5069425;28;20198;-75
2020/12/30 08:22:07;;;;;;;18.80;7.38;;;5.20;99.90;;;;;;5072857;28;20195;-76
2020/12/30 08:24:35;;;;;;;12.23;6.70;;;5.20;99.90;;;;;;5069140;28;20242;-80
2020/12/30 08:27:02;;;;;;;11.95;6.40;;;5.30;99.90;;;;;;5067016;27;20224;-76
2020/12/30 08:29:30;;;;;;;14.30;6.28;;;5.30;99.90;;;;;;5070160;28;20297;-76
2020/12/30 08:32:01;;;;;;;19.27;6.85;;;5.30;99.90;;;;;;5066108;27;20222;-77
2020/12/30 08:34:31;;;;;;;9.02;5.10;;;5.40;99.90;;;;;;5069059;28;20194;-77
2020/12/30 08:37:03;;;;;;;21.80;5.82;;;5.40;99.90;;;;;;5069773;28;20668;-77
2020/12/30 08:39:30;;;;;;;13.35;6.38;;;5.40;99.90;;;;;;5066778;28;20222;-77
2020/12/30 08:41:59;;;;;;;14.15;6.65;;;5.50;99.90;;;;;;5071029;27;20209;-77
2020/12/30 08:46:05;;;;;;;14.50;7.07;;;5.50;99.90;;;;;;5109300;27;20489;-78
2020/12/30 08:48:33;;;;;;;14.18;6.63;;;5.60;99.90;;;;;;5108052;28;20201;-77
2020/12/30 08:51:00;;;;;;;11.13;6.18;;;5.60;99.90;;;;;;5107369;28;20189;-77
2020/12/30 08:53:34;;;;;;;15.48;6.70;;;5.60;99.90;;;;;;5105311;28;20197;-75
2020/12/30 08:58:51;;;;;;;14.98;4.90;;;5.50;99.90;;;;;;4710596;23;20239;-76
2020/12/30 09:01:22;;;;;;;11.88;3.65;;;5.50;99.90;;;;;;5004539;28;20200;-77
2020/12/30 09:03:49;;;;;;;9.43;3.50;;;5.50;99.90;;;;;;5007794;28;20235;-79
2020/12/30 09:06:28;;;;;;;13.45;3.13;;;5.50;99.90;;;;;;5009087;28;20331;-75
2020/12/30 09:08:55;;;;;;;9.23;2.88;;;5.50;99.90;;;;;;5006435;28;20926;-78
2020/12/30 09:11:21;;;;;;;9.20;3.35;;;5.50;99.90;;;;;;5009738;28;20570;-76
2020/12/30 09:13:48;;;;;;;6.28;2.47;;;5.50;99.90;;;;;;5005709;28;20204;-76
2020/12/30 09:16:15;;;;;;;6.28;2.40;;;5.60;99.90;;;;;;5009855;28;20203;-76
2020/12/30 09:18:49;;;;;;;12.23;3.13;;;5.60;99.90;;;;;;5006683;28;20232;-77
2020/12/30 09:21:24;;;;;;;6.85;2.60;;;5.60;99.90;;;;;;5010211;28;20226;-76
2020/12/30 09:23:51;;;;;;;8.73;2.42;;;5.60;99.90;;;;;;5006589;28;20217;-76
2020/12/30 09:26:31;;;;;;;7.72;2.55;;;5.60;99.90;;;;;;5012595;28;20257;-76
2020/12/30 09:28:57;;;;;;;10.05;2.33;;;5.70;99.90;;;;;;5007169;28;20609;-77
2020/12/30 09:31:24;;;;;;;8.52;2.10;;;5.70;99.90;;;;;;5014239;28;20197;-76
2020/12/30 09:33:51;;;;;;;8.70;2.30;;;5.70;99.90;;;;;;5009153;28;20200;-77
2020/12/30 09:36:17;;;;;;;7.80;2.00;;;5.70;99.90;;;;;;5005186;28;20727;-76
2020/12/30 09:38:44;;;;;;;7.95;2.50;;;5.70;99.90;;;;;;5007203;28;20204;-76
2020/12/30 09:41:14;;;;;;;12.90;2.55;;;5.80;99.90;;;;;;5009264;28;20208;-76
2020/12/30 09:43:47;;;;;;;11.63;1.85;;;5.80;99.90;;;;;;5006934;28;20247;-76
2020/12/30 09:46:21;;;;;;;8.70;1.40;;;5.90;99.90;;;;;;5010483;28;20212;-76
2020/12/30 09:48:47;;;;;;;6.88;1.30;;;6.00;99.90;;;;;;5006735;28;20227;-77
2020/12/30 09:51:17;;;;;;;10.02;1.55;;;6.00;99.90;;;;;;5008740;28;20275;-76
2020/12/30 09:53:44;;;;;;;11.98;1.65;;;6.10;99.90;;;;;;5011064;28;20209;-77
2020/12/30 09:56:14;;;;;;;5.53;1.30;;;6.20;99.90;;;;;;5002906;28;20559;-76
2020/12/30 09:58:41;;;;;;;11.90;1.15;;;6.20;99.90;;;;;;4992031;28;20574;-76
2020/12/30 10:01:07;;;;;;;8.57;0.80;;;6.20;99.90;;;;;;4997213;28;20208;-76
2020/12/30 10:03:33;;;;;;;6.78;0.70;;;6.20;99.90;;;;;;4992393;28;20224;-76
2020/12/30 10:05:59;;;;;;;5.68;0.90;;;6.30;99.90;;;;;;4996411;28;20224;-76
2020/12/30 10:08:27;;;;;;;7.45;0.80;;;6.30;99.90;;;;;;4996466;28;20275;-76
2020/12/30 10:10:53;;;;;;;3.75;0.60;;;6.20;99.90;;;;;;4998010;28;20209;-76
2020/12/30 10:13:19;;;;;;;3.38;0.80;;;6.20;99.90;;;;;;4992620;28;20570;-77
2020/12/30 10:15:45;;;;;;;3.92;0.95;;;6.20;99.90;;;;;;4998954;28;20209;-75
2020/12/30 10:18:12;;;;;;;5.53;1.02;;;6.20;99.90;;;;;;4992404;28;20208;-75
2020/12/30 10:20:38;;;;;;;6.10;0.75;;;6.30;99.90;;;;;;4999161;28;20731;-75
2020/12/30 10:23:06;;;;;;;3.10;0.90;;;6.30;99.90;;;;;;4992587;28;20220;-76
2020/12/30 10:25:34;;;;;;;2.65;0.70;;;6.30;99.90;;;;;;4990205;28;20227;-77
2020/12/30 10:28:00;;;;;;;4.57;0.82;;;6.30;99.90;;;;;;4992812;28;20201;-77
2020/12/30 10:30:26;;;;;;;5.43;1.02;;;6.30;99.90;;;;;;4998862;28;20297;-77
2020/12/30 10:32:52;;;;;;;5.72;0.80;;;6.30;99.90;;;;;;4993250;28;20213;-77
2020/12/30 10:35:19;;;;;;;4.32;1.02;;;6.40;99.90;;;;;;4990018;28;20209;-76
2020/12/30 10:37:45;;;;;;;3.95;1.23;;;6.30;99.90;;;;;;4995166;28;20255;-77
2020/12/30 10:40:11;;;;;;;4.70;1.10;;;6.40;99.90;;;;;;4993845;28;20689;-77
2020/12/30 10:42:39;;;;;;;8.07;5.00;;;6.40;99.90;;;;;;4992461;28;20205;-77
2020/12/30 10:45:05;;;;;;;6.53;1.40;;;6.40;99.90;;;;;;4990754;28;20229;-75
2020/12/30 10:47:31;;;;;;;7.80;1.25;;;6.40;99.90;;;;;;4990762;28;20232;-76
2020/12/30 10:49:57;;;;;;;7.28;1.10;;;6.30;99.90;;;;;;4990599;28;20277;-76
2020/12/30 10:52:25;;;;;;;6.18;1.08;;;6.30;99.90;;;;;;4992247;28;20669;-76
2020/12/30 10:54:51;;;;;;;3.28;1.13;;;6.30;99.90;;;;;;4991419;28;20205;-75
2020/12/30 10:57:18;;;;;;;6.30;1.35;;;6.40;99.90;;;;;;4990680;28;20213;-76
2020/12/30 10:59:45;;;;;;;6.63;1.30;;;6.40;99.90;;;;;;4992320;28;20296;-76
2020/12/30 11:02:11;;;;;;;6.95;1.02;;;6.40;99.90;;;;;;4992941;28;20197;-76
2020/12/30 11:04:38;;;;;;;4.60;1.30;;;6.40;99.90;;;;;;4992405;28;20229;-76
2020/12/30 11:07:04;;;;;;;5.43;1.55;;;6.40;99.90;;;;;;4992008;28;20198;-76
2020/12/30 11:09:30;;;;;;;4.47;1.20;;;6.40;99.90;;;;;;4991442;28;20204;-77
2020/12/30 11:11:57;;;;;;;3.67;1.65;;;6.50;99.90;;;;;;4994979;28;20679;-77
2020/12/30 11:14:24;;;;;;;4.10;1.30;;;6.50;99.90;;;;;;4999868;28;20205;-77
2020/12/30 11:16:52;;;;;;;10.68;0.80;;;6.50;99.90;;;;;;4991274;28;20232;-77
2020/12/30 11:19:18;;;;;;;5.40;1.20;;;6.50;99.90;;;;;;4990523;28;20225;-77
2020/12/30 11:21:50;;;;;;;7.07;1.15;;;6.50;99.90;;;;;;4990905;28;20623;-77
2020/12/30 11:24:16;;;;;;;6.28;1.15;;;6.50;99.90;;;;;;4991687;28;20209;-76
2020/12/30 11:26:44;;;;;;;3.03;0.90;;;6.50;99.90;;;;;;4991398;28;20209;-76
2020/12/30 11:29:10;;;;;;;3.15;1.17;;;6.50;99.90;;;;;;4988674;28;20205;-76
2020/12/30 11:31:37;;;;;;;6.03;1.33;;;6.50;99.90;;;;;;4987503;28;20207;-76
2020/12/30 11:34:04;;;;;;;10.05;1.20;;;6.60;99.90;;;;;;4992393;28;20280;-76
2020/12/30 11:36:31;;;;;;;5.93;1.33;;;6.60;99.90;;;;;;4989649;28;20221;-78
2020/12/30 11:38:57;;;;;;;9.00;1.30;;;6.60;99.90;;;;;;4991993;28;20197;-75
2020/12/30 11:41:23;;;;;;;10.15;1.42;;;6.60;99.90;;;;;;4989387;28;20205;-76
2020/12/30 11:43:50;;;;;;;5.45;1.95;;;6.60;99.90;;;;;;4991961;28;20213;-75
2020/12/30 11:46:16;;;;;;;5.78;1.10;;;6.60;99.90;;;;;;4991448;28;20216;-76
2020/12/30 11:48:42;;;;;;;6.18;1.13;;;6.60;99.90;;;;;;4990209;28;20256;-75
2020/12/30 11:51:10;;;;;;;18.63;11.07;;;6.60;99.90;;;;;;4992479;28;20948;-75
2020/12/30 11:53:36;;;;;;;6.53;1.52;;;6.60;99.90;;;;;;4989840;28;20213;-75
2020/12/30 11:56:03;;;;;;;8.02;1.30;;;6.60;99.90;;;;;;4990897;28;20201;-75
2020/12/30 11:58:29;;;;;;;5.68;1.25;;;6.50;99.90;;;;;;4991120;28;20236;-76
2020/12/30 12:00:57;;;;;;;5.72;1.00;;;6.60;99.90;;;;;;4991221;28;20573;-75
2020/12/30 12:03:23;;;;;;;6.40;1.13;;;6.60;99.90;;;;;;4988225;28;20288;-75
2020/12/30 12:05:50;;;;;;;4.82;0.80;;;6.60;99.90;;;;;;4989941;28;20615;-78
2020/12/30 12:08:17;;;;;;;4.75;1.20;;;6.60;99.90;;;;;;4990905;28;20205;-75
2020/12/30 12:10:43;;;;;;;5.35;1.65;;;6.60;99.90;;;;;;4990101;28;20657;-76
2020/12/30 12:13:09;;;;;;;9.23;1.20;;;6.70;99.90;;;;;;4991957;28;20668;-76
2020/12/30 12:15:36;;;;;;;10.45;1.00;;;6.70;99.90;;;;;;4991775;28;20202;-76
2020/12/30 12:18:02;;;;;;;6.93;0.88;;;6.70;99.90;;;;;;4998797;28;20232;-76
2020/12/30 12:20:28;;;;;;;12.90;1.55;;;6.70;99.90;;;;;;4991594;28;20205;-76
2020/12/30 12:22:55;;;;;;;10.48;4.43;;;6.70;99.90;;;;;;4992010;28;20752;-76
2020/12/30 12:25:22;;;;;;;6.03;1.63;;;6.80;99.90;;;;;;4989339;28;20213;-76
2020/12/30 12:27:48;;;;;;;10.52;4.78;;;6.80;99.90;;;;;;4991974;28;20213;-76
2020/12/30 12:30:14;;;;;;;8.25;1.95;;;6.80;99.90;;;;;;4989323;28;20201;-76
2020/12/30 12:32:41;;;;;;;10.73;1.13;;;6.80;99.90;;;;;;4990786;28;20201;-76
2020/12/30 12:35:08;;;;;;;6.63;1.25;;;6.80;99.90;;;;;;4989555;28;20260;-76
2020/12/30 12:37:34;;;;;;;10.90;1.50;;;6.80;99.90;;;;;;4993083;28;20284;-76
2020/12/30 12:40:00;;;;;;;34.15;22.73;;;6.70;99.90;;;;;;4990972;28;20205;-76
2020/12/30 12:42:27;;;;;;;9.63;2.20;;;6.70;99.90;;;;;;4992969;28;20220;-76
2020/12/30 12:44:54;;;;;;;6.22;0.98;;;6.60;99.90;;;;;;4991064;28;20250;-76
2020/12/30 12:47:20;;;;;;;8.80;0.95;;;6.60;99.90;;;;;;4990347;28;20197;-76
2020/12/30 12:49:47;;;;;;;7.40;1.13;;;6.50;99.90;;;;;;4990236;28;20574;-76
2020/12/30 12:52:13;;;;;;;8.50;1.20;;;6.50;99.90;;;;;;4992181;28;20212;-76
2020/12/30 12:54:40;;;;;;;6.40;1.17;;;6.40;99.90;;;;;;4991517;28;20203;-76
2020/12/30 12:57:07;;;;;;;4.70;1.20;;;6.40;99.90;;;;;;4993772;28;20212;-77
2020/12/30 12:59:35;;;;;;;5.15;1.20;;;6.30;99.90;;;;;;4992636;28;20205;-76
2020/12/30 13:02:02;;;;;;;11.23;2.83;;;6.30;99.90;;;;;;4993168;28;20211;-76